X  Kiinni Metar Aviation säätiedot     LHBP Budapest Liszt Ferenc International Airport
Lämpötila
15°C Lämpötila
9°C Kastepiste
68% Kosteus



Tuuli
3 KM/T
2 MPH
1 M/S
2 KTS



Rauhoittaa
P
Nykyiset olosuhteet

Kirkas Kirkas
Paine 1009.82 (hPa) - 29.82 (inHg)
Näkyvyys 6 (maili) - 9.7 (km)
Lentokenttä
Lentokentän koodi LHBP

Sijainti: Budapest Liszt Ferenc International Airport
Etäisyys: 14 (km)

Metar:
LHBP 150630Z VRB02KT CAVOK 15/09 Q1010 NOSIG

Aika: 2024-04-15 08:30 CEST